Terminal Aerodrome Forecast
Issued by NWS

Home | Current Version | Previous Version | Text Only | Print | Product List | Glossary On
Versions: 1 2 3 4 5 6 7 8 9 10 11 12 13 14 15 16 17 18
220
FTUS42 KMLB 230540
TAFLEE
TAF
KLEE 230540Z 2306/2406 04005KT P6SM VCSH SCT006 OVC120
      TEMPO 2306/2309 -SHRA BKN006 OVC050
     FM230900 31005KT P6SM VCSH SCT006 OVC012
      TEMPO 2309/2313 5SM -RA BR OVC006
     FM231500 01009KT P6SM BKN012
     FM231900 04012KT P6SM BKN035=

USA.gov is the U.S. government's official web portal to all federal, state and local government web resources and services.